createdAt,value
2023-03-21T00:00:58.456Z,64.05
2023-03-21T00:03:27.114Z,63.82
2023-03-21T00:05:55.034Z,63.17
2023-03-21T00:08:25.664Z,62.97
2023-03-21T00:11:01.760Z,62.92
2023-03-21T00:13:33.085Z,63.14
2023-03-21T00:16:19.289Z,62.80
2023-03-21T00:18:58.892Z,62.69
2023-03-21T00:22:03.721Z,62.87
2023-03-21T00:24:20.220Z,62.66
2023-03-21T00:26:47.926Z,62.62
2023-03-21T00:29:16.169Z,62.27
2023-03-21T00:31:44.439Z,62.16
2023-03-21T00:36:41.176Z,61.43
2023-03-21T00:39:10.056Z,61.34
2023-03-21T00:41:45.090Z,61.67
2023-03-21T00:44:16.088Z,62.70
2023-03-21T00:46:57.264Z,62.34
2023-03-21T00:49:34.035Z,62.20
2023-03-21T00:52:14.774Z,62.64
2023-03-21T00:54:43.892Z,62.07
2023-03-21T00:57:11.528Z,61.88
2023-03-21T00:59:39.339Z,62.04
2023-03-21T01:02:07.994Z,61.84
2023-03-21T01:04:35.777Z,61.56
2023-03-21T01:07:03.912Z,61.85
2023-03-21T01:09:31.795Z,61.68
2023-03-21T01:12:00.318Z,61.50
2023-03-21T01:14:29.113Z,61.89
2023-03-21T01:16:58.033Z,62.24
2023-03-21T01:19:41.021Z,61.91
2023-03-21T01:22:16.908Z,61.70
2023-03-21T01:24:53.118Z,61.79
2023-03-21T01:27:22.082Z,61.05
2023-03-21T01:29:50.806Z,61.09
2023-03-21T01:32:18.828Z,60.79
2023-03-21T01:34:46.618Z,60.49
2023-03-21T01:37:18.218Z,60.85
2023-03-21T01:39:46.751Z,61.15
2023-03-21T01:42:14.935Z,60.92
2023-03-21T01:45:01.505Z,61.03
2023-03-21T01:47:30.802Z,61.23
2023-03-21T01:50:02.592Z,61.23
2023-03-21T01:52:38.737Z,61.83
2023-03-21T01:55:12.555Z,61.69
2023-03-21T01:58:02.468Z,61.64
2023-03-21T02:00:33.601Z,61.24
2023-03-21T02:03:21.006Z,60.86
2023-03-21T02:06:00.855Z,60.77
2023-03-21T02:08:39.253Z,60.34
2023-03-21T02:11:10.287Z,60.33
2023-03-21T02:13:38.108Z,60.46
2023-03-21T02:16:12.978Z,61.63
2023-03-21T02:19:13.965Z,61.55
2023-03-21T02:22:06.192Z,61.77
2023-03-21T02:24:48.730Z,61.44
2023-03-21T02:27:25.568Z,61.53
2023-03-21T02:30:39.923Z,61.84
2023-03-21T02:33:31.707Z,61.08
2023-03-21T02:36:19.073Z,60.80
2023-03-21T02:38:54.377Z,60.76
2023-03-21T02:41:40.160Z,61.12
2023-03-21T02:44:18.838Z,61.71
2023-03-21T02:47:06.660Z,61.92
2023-03-21T02:49:58.668Z,62.38
2023-03-21T02:52:39.278Z,61.96
2023-03-21T02:55:15.608Z,62.11
2023-03-21T02:57:50.134Z,62.07
2023-03-21T03:00:27.485Z,61.78
2023-03-21T03:03:08.125Z,61.55
2023-03-21T03:05:52.303Z,61.80
2023-03-21T03:08:38.512Z,61.72
2023-03-21T03:11:35.157Z,61.76
2023-03-21T03:14:42.009Z,61.83
2023-03-21T03:17:20.550Z,62.60
2023-03-21T03:20:20.271Z,64.24
2023-03-21T03:23:40.190Z,64.10
2023-03-21T03:26:26.540Z,63.46
2023-03-21T03:29:01.989Z,63.09
2023-03-21T03:32:04.461Z,63.35
2023-03-21T03:34:40.776Z,63.18
2023-03-21T03:37:14.441Z,62.83
2023-03-21T03:39:42.933Z,63.71
2023-03-21T03:42:28.196Z,63.88
2023-03-21T03:44:58.278Z,64.68
2023-03-21T03:47:56.371Z,64.42
2023-03-21T03:50:47.937Z,64.70
2023-03-21T03:53:38.678Z,64.56
2023-03-21T03:56:11.616Z,65.32
2023-03-21T03:58:45.840Z,65.41
2023-03-21T04:01:14.246Z,64.83
2023-03-21T04:03:51.746Z,64.21
2023-03-21T04:06:26.028Z,64.81
2023-03-21T04:08:54.214Z,65.80
2023-03-21T04:11:22.897Z,66.12
2023-03-21T04:13:50.805Z,66.15
2023-03-21T04:16:19.490Z,66.63
2023-03-21T04:18:48.758Z,67.19
2023-03-21T04:21:16.858Z,66.92
2023-03-21T04:23:44.815Z,66.60
2023-03-21T04:26:11.845Z,66.43
2023-03-21T04:28:40.797Z,65.92
2023-03-21T04:31:24.482Z,66.71
2023-03-21T04:33:55.966Z,67.45
2023-03-21T04:36:30.891Z,67.10
2023-03-21T04:39:01.511Z,67.02
2023-03-21T04:41:29.570Z,67.04
2023-03-21T04:43:57.377Z,66.88
2023-03-21T04:46:25.385Z,66.25
2023-03-21T04:48:53.476Z,66.30
2023-03-21T04:51:21.244Z,66.29
2023-03-21T04:53:49.637Z,66.67
2023-03-21T04:56:17.785Z,66.94
2023-03-21T04:58:45.726Z,67.45
2023-03-21T05:01:14.758Z,67.15
2023-03-21T05:03:42.634Z,66.81
2023-03-21T05:06:10.927Z,66.83
2023-03-21T05:08:39.554Z,67.33
2023-03-21T05:11:08.065Z,67.63
2023-03-21T05:13:36.339Z,67.78
2023-03-21T05:16:04.776Z,67.53
2023-03-21T05:18:39.169Z,67.35
2023-03-21T05:21:10.869Z,66.98
2023-03-21T05:23:42.185Z,66.48
2023-03-21T05:26:10.649Z,67.05
2023-03-21T05:28:40.162Z,67.57
2023-03-21T05:31:09.123Z,67.97
2023-03-21T05:33:37.601Z,68.05
2023-03-21T05:36:06.605Z,67.06
2023-03-21T05:38:33.674Z,66.10
2023-03-21T05:41:01.306Z,65.69
2023-03-21T05:43:29.481Z,67.61
2023-03-21T05:45:58.416Z,67.55
2023-03-21T05:48:26.223Z,66.10
2023-03-21T05:50:55.174Z,64.91
2023-03-21T05:53:23.364Z,65.77
2023-03-21T05:55:51.235Z,67.33
2023-03-21T05:58:19.736Z,67.80
2023-03-21T06:00:47.582Z,67.40
2023-03-21T06:03:15.465Z,66.46
2023-03-21T06:05:43.260Z,66.28
2023-03-21T06:08:12.031Z,66.52
2023-03-21T06:10:40.596Z,66.42
2023-03-21T06:13:09.303Z,67.01
2023-03-21T06:15:36.821Z,65.87
2023-03-21T06:18:04.483Z,65.66
2023-03-21T06:20:33.528Z,66.01
2023-03-21T06:23:01.572Z,66.11
2023-03-21T06:25:29.114Z,66.70
2023-03-21T06:27:57.934Z,66.82
2023-03-21T06:30:26.687Z,66.89
2023-03-21T06:32:56.006Z,67.93
2023-03-21T06:35:25.783Z,67.90
2023-03-21T06:37:54.839Z,66.94
2023-03-21T06:40:22.875Z,67.79
2023-03-21T06:42:51.407Z,66.62
2023-03-21T06:45:19.357Z,66.28
2023-03-21T06:47:47.824Z,66.20
2023-03-21T06:50:16.052Z,66.13
2023-03-21T06:52:44.785Z,66.14
2023-03-21T06:55:13.728Z,65.65
2023-03-21T06:57:41.691Z,65.08
2023-03-21T07:00:10.308Z,64.80
2023-03-21T07:02:38.666Z,64.68
2023-03-21T07:05:13.761Z,64.92
2023-03-21T07:07:42.968Z,65.01
2023-03-21T07:10:11.455Z,65.27
2023-03-21T07:12:40.412Z,64.61
2023-03-21T07:15:09.742Z,63.65
2023-03-21T07:17:37.762Z,62.78
2023-03-21T07:20:08.407Z,62.38
2023-03-21T07:22:36.964Z,61.80
2023-03-21T07:25:05.777Z,60.77
2023-03-21T07:27:34.385Z,60.85
2023-03-21T07:30:05.170Z,60.50
2023-03-21T07:32:35.416Z,59.70
2023-03-21T07:35:04.356Z,58.75
2023-03-21T07:37:32.952Z,59.17
2023-03-21T07:40:00.866Z,58.23
2023-03-21T07:45:03.341Z,57.00
2023-03-21T07:47:30.455Z,56.61
2023-03-21T07:49:59.270Z,56.24
2023-03-21T07:52:27.488Z,55.44
2023-03-21T07:54:54.464Z,55.52
2023-03-21T07:57:22.547Z,55.27
2023-03-21T07:59:51.271Z,54.91
2023-03-21T08:02:20.082Z,55.90
2023-03-21T08:04:49.187Z,55.94
2023-03-21T08:07:17.508Z,55.79
2023-03-21T08:09:45.457Z,56.45
2023-03-21T08:12:13.947Z,55.99
2023-03-21T08:14:42.657Z,54.81
2023-03-21T08:17:10.664Z,54.09
2023-03-21T08:19:39.387Z,54.74
2023-03-21T08:22:07.874Z,54.91
2023-03-21T08:24:35.743Z,54.90
2023-03-21T08:27:03.788Z,54.91
2023-03-21T08:29:31.978Z,55.12
2023-03-21T08:31:59.909Z,54.53
2023-03-21T08:34:28.418Z,54.29
2023-03-21T08:36:56.947Z,53.94
2023-03-21T08:39:25.047Z,53.61
2023-03-21T08:41:53.678Z,53.17
2023-03-21T08:44:22.131Z,52.64
2023-03-21T08:46:49.965Z,53.12
2023-03-21T08:49:18.575Z,52.75
2023-03-21T08:51:46.453Z,53.14
2023-03-21T08:54:22.501Z,52.56
2023-03-21T08:56:49.382Z,52.16
2023-03-21T08:59:17.302Z,51.77
2023-03-21T09:01:45.523Z,51.36
2023-03-21T09:04:14.085Z,51.70
2023-03-21T09:06:45.668Z,50.83
2023-03-21T09:09:14.561Z,50.49
2023-03-21T09:11:42.948Z,50.36
2023-03-21T09:14:11.962Z,49.20
2023-03-21T09:16:39.655Z,50.39
2023-03-21T09:19:09.273Z,50.31
2023-03-21T09:21:38.360Z,49.82
2023-03-21T09:24:06.822Z,48.75
2023-03-21T09:26:35.077Z,47.96
2023-03-21T09:29:06.050Z,48.05
2023-03-21T09:31:34.175Z,47.49
2023-03-21T09:34:01.991Z,50.01
2023-03-21T09:36:32.627Z,49.58
2023-03-21T09:38:59.614Z,48.29
2023-03-21T09:41:37.721Z,48.77
2023-03-21T09:44:32.430Z,46.92
2023-03-21T09:47:21.772Z,46.19
2023-03-21T09:50:01.735Z,45.52
2023-03-21T09:52:39.974Z,43.98
2023-03-21T09:55:21.607Z,44.20
2023-03-21T09:58:14.356Z,44.23
2023-03-21T10:00:46.478Z,44.20
2023-03-21T10:03:28.486Z,44.25
2023-03-21T10:05:58.773Z,43.09
2023-03-21T10:08:36.659Z,44.77
2023-03-21T10:11:24.655Z,46.16
2023-03-21T10:14:18.846Z,45.08
2023-03-21T10:16:49.618Z,43.04
2023-03-21T10:19:19.464Z,42.26
2023-03-21T10:22:06.962Z,41.59
2023-03-21T10:24:35.177Z,41.11
2023-03-21T10:27:04.609Z,41.03
2023-03-21T10:29:44.733Z,40.24
2023-03-21T10:32:17.586Z,40.40
2023-03-21T10:34:52.902Z,40.27
2023-03-21T10:37:20.902Z,41.26
2023-03-21T10:39:54.283Z,40.21
2023-03-21T10:42:26.959Z,40.71
2023-03-21T10:44:57.586Z,39.14
2023-03-21T10:47:32.664Z,40.28
2023-03-21T10:50:08.466Z,40.06
2023-03-21T10:52:43.106Z,39.26
2023-03-21T10:55:28.895Z,39.03
2023-03-21T10:58:11.061Z,40.71
2023-03-21T11:00:41.572Z,40.84
2023-03-21T11:03:23.187Z,41.29
2023-03-21T11:06:11.970Z,40.75
2023-03-21T11:08:48.133Z,40.93
2023-03-21T11:11:27.847Z,39.44
2023-03-21T11:14:08.197Z,39.14
2023-03-21T11:16:44.275Z,37.61
2023-03-21T11:19:19.246Z,39.61
2023-03-21T11:21:46.493Z,39.81
2023-03-21T11:24:18.342Z,39.56
2023-03-21T11:26:49.785Z,39.00
2023-03-21T11:29:22.307Z,39.80
2023-03-21T11:31:49.056Z,38.55
2023-03-21T11:34:33.309Z,37.92
2023-03-21T11:37:02.862Z,37.93
2023-03-21T11:39:34.862Z,37.36
2023-03-21T11:42:03.717Z,37.88
2023-03-21T11:44:40.108Z,37.58
2023-03-21T11:47:10.763Z,37.51
2023-03-21T11:49:38.074Z,38.22
2023-03-21T11:52:22.649Z,39.45
2023-03-21T11:54:54.138Z,39.53
2023-03-21T11:57:44.449Z,39.13
2023-03-21T12:00:26.369Z,36.12
2023-03-21T12:02:56.408Z,37.04
2023-03-21T12:05:26.665Z,37.92
2023-03-21T12:08:17.780Z,36.83
2023-03-21T12:11:03.148Z,37.67
2023-03-21T12:13:35.665Z,37.00
2023-03-21T12:16:11.370Z,36.02
2023-03-21T12:19:05.662Z,35.35
2023-03-21T12:21:40.995Z,34.09
2023-03-21T12:24:19.416Z,35.39
2023-03-21T12:27:08.993Z,37.47
2023-03-21T12:29:59.608Z,37.15
2023-03-21T12:32:29.368Z,37.44
2023-03-21T12:35:14.466Z,36.42
2023-03-21T12:38:08.560Z,37.31
2023-03-21T12:40:41.184Z,37.67
2023-03-21T12:43:27.904Z,37.71
2023-03-21T12:46:03.695Z,37.74
2023-03-21T12:48:41.892Z,38.00
2023-03-21T12:51:15.222Z,37.77
2023-03-21T12:54:05.595Z,38.65
2023-03-21T12:57:08.283Z,38.66
2023-03-21T12:59:44.389Z,39.03
2023-03-21T13:02:18.615Z,38.76
2023-03-21T13:05:27.942Z,39.38
2023-03-21T13:08:24.807Z,38.65
2023-03-21T13:10:52.610Z,39.45
2023-03-21T13:13:34.426Z,37.82
2023-03-21T13:16:16.107Z,37.07
2023-03-21T13:18:57.569Z,37.03
2023-03-21T13:21:30.181Z,34.95
2023-03-21T13:24:22.644Z,35.31
2023-03-21T13:27:02.575Z,34.21
2023-03-21T13:29:33.237Z,32.99
2023-03-21T13:32:16.893Z,32.68
2023-03-21T13:34:44.789Z,32.35
2023-03-21T13:37:18.453Z,32.66
2023-03-21T13:39:46.869Z,32.77
2023-03-21T13:42:23.293Z,32.45
2023-03-21T13:44:56.207Z,33.39
2023-03-21T13:47:34.965Z,33.22
2023-03-21T13:50:19.541Z,32.74
2023-03-21T13:53:04.668Z,33.40
2023-03-21T13:55:41.601Z,33.29
2023-03-21T13:58:23.476Z,33.25
2023-03-21T14:01:22.018Z,32.96
2023-03-21T14:03:50.116Z,32.65
2023-03-21T14:06:18.772Z,32.82
2023-03-21T14:08:49.079Z,32.90
2023-03-21T14:11:21.677Z,33.04
2023-03-21T14:13:51.659Z,32.74
2023-03-21T14:16:22.122Z,33.13
2023-03-21T14:19:07.414Z,34.19
2023-03-21T14:21:35.946Z,34.73
2023-03-21T14:24:12.985Z,35.15
2023-03-21T14:27:06.361Z,34.14
2023-03-21T14:29:35.299Z,34.95
2023-03-21T14:32:03.771Z,33.75
2023-03-21T14:34:35.291Z,33.64
2023-03-21T14:37:02.739Z,31.77
2023-03-21T14:39:32.695Z,31.28
2023-03-21T14:42:09.504Z,32.12
2023-03-21T14:44:56.903Z,32.33
2023-03-21T14:47:30.089Z,34.01
2023-03-21T14:50:01.123Z,34.34
2023-03-21T14:52:32.497Z,34.76
2023-03-21T14:55:05.341Z,34.22
2023-03-21T14:57:33.834Z,34.29
2023-03-21T15:00:12.751Z,35.58
2023-03-21T15:02:41.524Z,36.20
2023-03-21T15:05:15.852Z,36.37
2023-03-21T15:07:42.727Z,35.67
2023-03-21T15:10:18.087Z,37.27
2023-03-21T15:13:02.578Z,36.56
2023-03-21T15:15:31.868Z,35.65
2023-03-21T15:18:05.457Z,36.46
2023-03-21T15:20:35.695Z,35.96
2023-03-21T15:23:16.410Z,35.64
2023-03-21T15:25:45.574Z,36.61
2023-03-21T15:28:15.554Z,37.44
2023-03-21T15:30:50.405Z,37.03
2023-03-21T15:33:18.341Z,37.55
2023-03-21T15:35:53.996Z,36.94
2023-03-21T15:38:33.606Z,35.94
2023-03-21T15:41:21.813Z,36.21
2023-03-21T15:43:54.802Z,35.94
2023-03-21T15:46:42.208Z,35.26
2023-03-21T15:49:09.398Z,35.18
2023-03-21T15:51:36.671Z,35.47
2023-03-21T15:54:04.118Z,35.49
2023-03-21T15:56:35.095Z,35.83
2023-03-21T15:59:05.821Z,35.29
2023-03-21T16:01:39.109Z,35.25
2023-03-21T16:04:13.539Z,35.75
2023-03-21T16:06:56.838Z,35.71
2023-03-21T16:09:26.142Z,36.20
2023-03-21T16:11:59.115Z,36.79
2023-03-21T16:14:30.224Z,36.59
2023-03-21T16:16:59.233Z,37.71
2023-03-21T16:19:27.718Z,37.13
2023-03-21T16:21:55.391Z,37.26
2023-03-21T16:24:22.235Z,36.99
2023-03-21T16:26:52.417Z,37.70
2023-03-21T16:29:20.558Z,37.45
2023-03-21T16:31:48.644Z,37.20
2023-03-21T16:34:16.503Z,37.37
2023-03-21T16:36:44.139Z,37.87
2023-03-21T16:39:27.165Z,37.26
2023-03-21T16:41:56.639Z,37.42
2023-03-21T16:44:25.522Z,37.59
2023-03-21T16:46:52.387Z,38.06
2023-03-21T16:49:24.908Z,39.01
2023-03-21T16:51:52.928Z,38.54
2023-03-21T16:54:21.143Z,39.04
2023-03-21T16:56:54.438Z,38.69
2023-03-21T16:59:22.060Z,38.06
2023-03-21T17:01:50.053Z,39.57
2023-03-21T17:04:19.098Z,39.34
2023-03-21T17:06:50.200Z,39.55
2023-03-21T17:09:24.442Z,39.89
2023-03-21T17:11:51.558Z,39.77
2023-03-21T17:14:21.586Z,40.42
2023-03-21T17:16:49.809Z,40.38
2023-03-21T17:19:23.992Z,39.66
2023-03-21T17:21:52.841Z,39.96
2023-03-21T17:24:20.906Z,40.09
2023-03-21T17:26:49.764Z,40.23
2023-03-21T17:29:17.950Z,40.18
2023-03-21T17:31:47.581Z,39.87
2023-03-21T17:34:15.593Z,39.59
2023-03-21T17:36:46.387Z,40.65
2023-03-21T17:39:20.110Z,41.04
2023-03-21T17:41:48.829Z,42.04
2023-03-21T17:44:16.769Z,42.75
2023-03-21T17:46:44.510Z,42.05
2023-03-21T17:49:14.617Z,42.07
2023-03-21T17:51:42.221Z,42.27
2023-03-21T17:54:10.237Z,42.03
2023-03-21T17:56:41.857Z,41.67
2023-03-21T17:59:13.759Z,41.75
2023-03-21T18:01:41.720Z,42.56
2023-03-21T18:04:09.130Z,41.90
2023-03-21T18:06:37.469Z,42.29
2023-03-21T18:09:12.134Z,42.54
2023-03-21T18:11:40.543Z,42.60
2023-03-21T18:14:16.248Z,42.55
2023-03-21T18:16:45.930Z,42.57
2023-03-21T18:19:14.904Z,42.76
2023-03-21T18:21:46.598Z,43.00
2023-03-21T18:24:15.502Z,43.27
2023-03-21T18:26:43.340Z,44.23
2023-03-21T18:32:06.946Z,43.19
2023-03-21T18:34:36.923Z,43.79
2023-03-21T18:37:07.587Z,44.34
2023-03-21T18:39:34.976Z,43.61
2023-03-21T18:42:04.142Z,43.39
2023-03-21T18:44:39.071Z,43.94
2023-03-21T18:47:08.578Z,43.70
2023-03-21T18:52:23.591Z,43.09
2023-03-21T18:54:50.669Z,43.35
2023-03-21T18:57:35.800Z,43.12
2023-03-21T19:00:13.308Z,43.65
2023-03-21T19:02:46.251Z,44.18
2023-03-21T19:07:57.226Z,44.42
2023-03-21T19:10:25.035Z,44.21
2023-03-21T19:12:54.980Z,44.37
2023-03-21T19:15:24.469Z,43.89
2023-03-21T19:20:46.844Z,44.91
2023-03-21T19:23:16.246Z,44.88
2023-03-21T19:25:45.358Z,44.99
2023-03-21T19:28:12.629Z,45.09
2023-03-21T19:30:49.036Z,45.40
2023-03-21T19:33:17.214Z,45.29
2023-03-21T19:35:46.486Z,45.43
2023-03-21T19:38:14.948Z,45.04
2023-03-21T19:40:43.359Z,45.79
2023-03-21T19:43:31.670Z,45.80
2023-03-21T19:46:01.053Z,46.12
2023-03-21T19:48:28.536Z,45.58
2023-03-21T19:53:43.473Z,46.40
2023-03-21T19:56:21.511Z,46.00
2023-03-21T19:58:50.865Z,46.37
2023-03-21T20:01:18.090Z,46.56
2023-03-21T20:03:45.164Z,46.79
2023-03-21T20:06:13.058Z,46.90
2023-03-21T20:09:13.747Z,46.95
2023-03-21T20:11:28.115Z,46.49
2023-03-21T20:13:57.741Z,47.35
2023-03-21T20:16:33.711Z,47.99
2023-03-21T20:19:01.748Z,47.38
2023-03-21T20:21:47.613Z,47.72
2023-03-21T20:24:19.382Z,48.30
2023-03-21T20:26:50.019Z,48.79
2023-03-21T20:30:07.000Z,48.09
2023-03-21T20:32:07.609Z,48.39
2023-03-21T20:34:36.914Z,48.54
2023-03-21T20:37:06.498Z,48.29
2023-03-21T20:39:34.771Z,48.24
2023-03-21T20:42:03.544Z,47.77
2023-03-21T20:47:20.805Z,47.03
2023-03-21T20:49:49.746Z,47.27
2023-03-21T20:55:09.282Z,47.80
2023-03-21T20:57:38.724Z,47.71
2023-03-21T21:00:15.607Z,48.19
2023-03-21T21:02:48.932Z,48.84
2023-03-21T21:05:35.675Z,49.43
2023-03-21T21:08:04.400Z,50.60
2023-03-21T21:10:33.738Z,50.53
2023-03-21T21:13:03.198Z,49.90
2023-03-21T21:15:33.586Z,49.93
2023-03-21T21:18:06.164Z,50.21
2023-03-21T21:20:37.072Z,50.11
2023-03-21T21:23:06.301Z,50.78
2023-03-21T21:25:36.150Z,50.79
2023-03-21T21:28:09.425Z,52.02
2023-03-21T21:30:41.744Z,52.42
2023-03-21T21:33:09.952Z,52.47
2023-03-21T21:35:37.210Z,52.32
2023-03-21T21:38:04.975Z,52.44
2023-03-21T21:40:31.853Z,52.47
2023-03-21T21:43:03.815Z,52.58
2023-03-21T21:45:32.355Z,52.79
2023-03-21T21:48:01.513Z,52.78
2023-03-21T21:50:29.276Z,53.44
2023-03-21T21:52:57.216Z,53.01
2023-03-21T21:55:25.772Z,53.20
2023-03-21T21:57:58.039Z,52.90
2023-03-21T22:00:28.592Z,52.87
2023-03-21T22:02:57.995Z,52.44
2023-03-21T22:05:26.549Z,53.43
2023-03-21T22:07:56.764Z,53.83
2023-03-21T22:10:27.338Z,53.89
2023-03-21T22:12:54.253Z,53.36
2023-03-21T22:15:24.225Z,54.30
2023-03-21T22:17:51.926Z,54.37
2023-03-21T22:20:21.742Z,54.72
2023-03-21T22:22:51.223Z,56.52
2023-03-21T22:25:19.124Z,56.69
2023-03-21T22:27:47.954Z,56.96
2023-03-21T22:30:17.731Z,57.26
2023-03-21T22:32:56.420Z,56.58
2023-03-21T22:35:32.938Z,56.76
2023-03-21T22:38:01.029Z,57.33
2023-03-21T22:40:29.753Z,57.09
2023-03-21T22:42:57.722Z,57.56
2023-03-21T22:45:26.287Z,57.30
2023-03-21T22:47:54.894Z,56.66
2023-03-21T22:50:22.930Z,56.70
2023-03-21T22:52:50.955Z,57.41
2023-03-21T22:55:19.214Z,56.91
2023-03-21T22:57:47.037Z,56.49
2023-03-21T23:00:16.414Z,57.06
2023-03-21T23:02:44.210Z,57.58
2023-03-21T23:05:12.343Z,57.38
2023-03-21T23:07:40.071Z,57.19
2023-03-21T23:10:09.144Z,57.06
2023-03-21T23:12:37.682Z,57.36
2023-03-21T23:15:07.361Z,57.73
2023-03-21T23:17:34.396Z,57.60
2023-03-21T23:20:02.596Z,57.24
2023-03-21T23:22:33.212Z,57.49
2023-03-21T23:25:01.538Z,57.86
2023-03-21T23:27:30.115Z,57.84
2023-03-21T23:29:58.078Z,57.01
2023-03-21T23:32:24.980Z,57.23
2023-03-21T23:34:54.788Z,58.11
2023-03-21T23:37:25.234Z,58.28
2023-03-21T23:39:55.255Z,58.99
2023-03-21T23:42:23.939Z,58.31
2023-03-21T23:44:52.647Z,58.46
2023-03-21T23:47:20.865Z,58.64
2023-03-21T23:49:50.184Z,58.70
2023-03-21T23:52:18.981Z,58.89
2023-03-21T23:54:46.824Z,59.67
2023-03-21T23:57:15.323Z,59.95
2023-03-21T23:59:43.116Z,60.17
